Terminal Aerodrome Forecast
Issued by NWS

Home | Current Version | Previous Version | Text Only | Print | Product List | Glossary On
Versions: 1 2 3 4 5 6 7 8 9 10 11 12 13 14
757
FTUS41 KPBZ 171726
TAFMGW
TAF
KMGW 171726Z 1718/1818 21005KT P6SM OVC200
     FM172100 21005KT P6SM -RA OVC060
     FM180100 20004KT P6SM OVC040
     FM180800 22004KT 5SM -DZ BR OVC015
     FM181500 22006KT 5SM -DZ OVC008=

USA.gov is the U.S. government's official web portal to all federal, state and local government web resources and services.